createdAt,value
2022-12-25T00:01:39.261Z,100273.64
2022-12-25T00:04:12.226Z,100271.23
2022-12-25T00:06:44.782Z,100274.86
2022-12-25T00:09:17.199Z,100274.50
2022-12-25T00:11:49.570Z,100269.13
2022-12-25T00:14:21.979Z,100272.04
2022-12-25T00:16:54.344Z,100269.45
2022-12-25T00:19:26.719Z,100275.14
2022-12-25T00:21:59.171Z,100282.05
2022-12-25T00:24:32.358Z,100285.22
2022-12-25T00:27:04.938Z,100292.42
2022-12-25T00:29:38.201Z,100294.11
2022-12-25T00:32:10.707Z,100292.14
2022-12-25T00:34:43.108Z,100300.77
2022-12-25T00:37:15.531Z,100302.02
2022-12-25T00:39:48.926Z,100308.48
2022-12-25T00:42:21.364Z,100310.75
2022-12-25T00:44:53.826Z,100318.38
2022-12-25T00:47:26.454Z,100326.12
2022-12-25T00:49:59.162Z,100328.73
2022-12-25T00:52:31.563Z,100335.37
2022-12-25T00:55:03.986Z,100338.80
2022-12-25T00:57:36.639Z,100340.69
2022-12-25T01:00:11.246Z,100338.21
2022-12-25T01:02:43.700Z,100344.23
2022-12-25T01:05:16.417Z,100349.05
2022-12-25T01:07:48.669Z,100353.80
2022-12-25T01:10:24.106Z,100360.98
2022-12-25T01:12:56.457Z,100357.30
2022-12-25T01:15:28.908Z,100355.48
2022-12-25T01:18:07.281Z,100345.26
2022-12-25T01:20:40.263Z,100345.73
2022-12-25T01:23:12.912Z,100337.64
2022-12-25T01:25:45.544Z,100338.64
2022-12-25T01:28:18.426Z,100338.71
2022-12-25T01:30:52.577Z,100342.39
2022-12-25T01:33:25.092Z,100345.23
2022-12-25T01:35:57.977Z,100345.45
2022-12-25T01:38:30.352Z,100346.06
2022-12-25T01:41:02.656Z,100345.39
2022-12-25T01:43:36.071Z,100345.77
2022-12-25T01:46:08.725Z,100345.11
2022-12-25T01:48:41.870Z,100343.84
2022-12-25T01:51:24.428Z,100350.40
2022-12-25T01:54:00.803Z,100355.91
2022-12-25T01:56:34.291Z,100359.02
2022-12-25T01:59:09.451Z,100355.52
2022-12-25T02:01:43.048Z,100357.94
2022-12-25T02:04:23.218Z,100360.35
2022-12-25T02:06:55.642Z,100362.21
2022-12-25T02:09:27.990Z,100362.23
2022-12-25T02:12:00.693Z,100363.33
2022-12-25T02:14:38.020Z,100373.77
2022-12-25T02:17:18.156Z,100372.46
2022-12-25T02:20:11.755Z,100373.94
2022-12-25T02:22:51.572Z,100367.61
2022-12-25T02:25:44.133Z,100358.48
2022-12-25T02:28:22.778Z,100354.44
2022-12-25T02:30:59.958Z,100345.78
2022-12-25T02:33:55.686Z,100338.75
2022-12-25T02:36:35.091Z,100339.00
2022-12-25T02:39:32.680Z,100340.34
2022-12-25T02:42:08.611Z,100336.57
2022-12-25T02:45:03.378Z,100339.53
2022-12-25T02:47:55.047Z,100340.60
2022-12-25T02:50:45.838Z,100345.86
2022-12-25T02:53:35.907Z,100341.64
2022-12-25T02:56:37.791Z,100346.44
2022-12-25T02:59:28.735Z,100354.23
2022-12-25T03:02:19.542Z,100353.28
2022-12-25T03:05:14.176Z,100351.04
2022-12-25T03:07:47.014Z,100355.81
2022-12-25T03:10:38.864Z,100351.92
2022-12-25T03:13:17.562Z,100350.13
2022-12-25T03:16:09.295Z,100352.24
2022-12-25T03:18:42.025Z,100356.95
2022-12-25T03:21:32.340Z,100357.13
2022-12-25T03:24:18.953Z,100361.85
2022-12-25T03:26:57.528Z,100354.65
2022-12-25T03:29:51.061Z,100358.08
2022-12-25T03:32:35.212Z,100362.19
2022-12-25T03:35:25.445Z,100363.19
2022-12-25T03:38:31.618Z,100360.84
2022-12-25T03:41:28.333Z,100356.40
2022-12-25T03:44:26.974Z,100359.55
2022-12-25T03:47:25.769Z,100365.09
2022-12-25T03:50:23.747Z,100369.77
2022-12-25T03:53:16.703Z,100375.43
2022-12-25T03:56:07.412Z,100378.71
2022-12-25T03:58:57.870Z,100377.84
2022-12-25T04:01:48.293Z,100376.47
2022-12-25T04:04:38.254Z,100378.62
2022-12-25T04:07:28.499Z,100377.84
2022-12-25T04:10:18.748Z,100371.67
2022-12-25T04:13:10.345Z,100374.13
2022-12-25T04:16:00.929Z,100374.84
2022-12-25T04:18:50.949Z,100377.98
2022-12-25T04:21:41.317Z,100378.42
2022-12-25T04:24:31.743Z,100386.98
2022-12-25T04:27:22.052Z,100393.02
2022-12-25T04:30:12.075Z,100394.15
2022-12-25T04:33:02.419Z,100391.53
2022-12-25T04:35:52.708Z,100391.92
2022-12-25T04:38:25.083Z,100398.41
2022-12-25T04:40:57.707Z,100396.74
2022-12-25T04:43:30.370Z,100399.60
2022-12-25T04:46:04.239Z,100393.75
2022-12-25T04:48:37.959Z,100406.58
2022-12-25T04:51:18.972Z,100405.05
2022-12-25T04:53:52.649Z,100408.90
2022-12-25T04:56:25.286Z,100410.27
2022-12-25T04:58:58.686Z,100408.36
2022-12-25T05:01:31.243Z,100405.82
2022-12-25T05:04:03.737Z,100406.77
2022-12-25T05:06:36.290Z,100409.92
2022-12-25T05:09:08.792Z,100411.10
2022-12-25T05:11:41.214Z,100410.21
2022-12-25T05:14:13.643Z,100406.41
2022-12-25T05:16:46.189Z,100405.27
2022-12-25T05:19:18.631Z,100398.65
2022-12-25T05:21:50.893Z,100401.48
2022-12-25T05:24:26.231Z,100402.97
2022-12-25T05:26:58.677Z,100399.52
2022-12-25T05:29:31.128Z,100403.89
2022-12-25T05:32:03.725Z,100406.14
2022-12-25T05:34:36.259Z,100413.08
2022-12-25T05:37:08.640Z,100414.89
2022-12-25T05:39:40.964Z,100421.76
2022-12-25T05:42:13.411Z,100423.70
2022-12-25T05:44:45.680Z,100432.50
2022-12-25T05:47:18.149Z,100435.61
2022-12-25T05:49:50.418Z,100436.34
2022-12-25T05:52:22.717Z,100439.73
2022-12-25T05:54:55.138Z,100446.10
2022-12-25T05:57:29.127Z,100449.42
2022-12-25T06:00:01.844Z,100451.92
2022-12-25T06:02:35.825Z,100454.98
2022-12-25T06:05:10.057Z,100462.76
2022-12-25T06:07:42.305Z,100466.44
2022-12-25T06:10:15.044Z,100465.03
2022-12-25T06:12:47.588Z,100467.91
2022-12-25T06:15:20.013Z,100470.55
2022-12-25T06:17:52.335Z,100471.17
2022-12-25T06:20:24.764Z,100477.34
2022-12-25T06:22:57.106Z,100481.08
2022-12-25T06:25:29.608Z,100481.55
2022-12-25T06:28:01.900Z,100492.29
2022-12-25T06:30:34.863Z,100491.75
2022-12-25T06:33:07.273Z,100494.77
2022-12-25T06:35:42.219Z,100489.84
2022-12-25T06:38:14.570Z,100488.91
2022-12-25T06:40:46.941Z,100493.79
2022-12-25T06:43:19.315Z,100504.39
2022-12-25T06:45:53.280Z,100507.05
2022-12-25T06:48:25.836Z,100513.75
2022-12-25T06:50:58.126Z,100521.03
2022-12-25T06:53:37.084Z,100530.50
2022-12-25T06:56:15.854Z,100532.59
2022-12-25T06:58:49.258Z,100544.32
2022-12-25T07:01:24.670Z,100551.10
2022-12-25T07:03:59.798Z,100554.09
2022-12-25T07:06:32.394Z,100561.36
2022-12-25T07:09:04.983Z,100566.01
2022-12-25T07:11:37.750Z,100567.45
2022-12-25T07:14:20.282Z,100569.75
2022-12-25T07:16:56.143Z,100570.76
2022-12-25T07:19:28.606Z,100568.48
2022-12-25T07:22:01.031Z,100568.30
2022-12-25T07:24:33.383Z,100577.09
2022-12-25T07:27:05.801Z,100580.80
2022-12-25T07:29:38.155Z,100586.05
2022-12-25T07:32:10.720Z,100582.97
2022-12-25T07:34:43.333Z,100588.29
2022-12-25T07:37:15.914Z,100598.03
2022-12-25T07:39:48.336Z,100599.64
2022-12-25T07:42:24.965Z,100605.55
2022-12-25T07:45:00.117Z,100614.48
2022-12-25T07:47:32.619Z,100626.06
2022-12-25T07:50:05.419Z,100628.15
2022-12-25T07:52:43.212Z,100625.51
2022-12-25T07:55:16.164Z,100625.70
2022-12-25T07:57:48.665Z,100628.73
2022-12-25T08:00:29.711Z,100633.88
2022-12-25T08:03:02.537Z,100637.94
2022-12-25T08:05:36.640Z,100639.31
2022-12-25T08:08:10.548Z,100645.78
2022-12-25T08:10:48.341Z,100657.52
2022-12-25T08:13:20.953Z,100660.36
2022-12-25T08:15:58.279Z,100658.21
2022-12-25T08:18:31.336Z,100659.96
2022-12-25T08:21:07.675Z,100662.60
2022-12-25T08:23:41.966Z,100660.33
2022-12-25T08:26:17.053Z,100658.10
2022-12-25T08:28:50.198Z,100650.81
2022-12-25T08:31:24.919Z,100662.75
2022-12-25T08:33:59.316Z,100663.12
2022-12-25T08:36:32.099Z,100668.86
2022-12-25T08:39:04.610Z,100671.84
2022-12-25T08:41:37.154Z,100671.09
2022-12-25T08:44:09.578Z,100668.52
2022-12-25T08:46:42.061Z,100666.56
2022-12-25T08:49:14.456Z,100667.65
2022-12-25T08:51:48.076Z,100672.85
2022-12-25T08:54:20.424Z,100672.05
2022-12-25T08:56:56.136Z,100671.39
2022-12-25T08:59:34.573Z,100669.47
2022-12-25T09:02:07.041Z,100666.48
2022-12-25T09:04:39.471Z,100661.02
2022-12-25T09:07:12.018Z,100656.50
2022-12-25T09:09:44.553Z,100654.48
2022-12-25T09:12:16.840Z,100648.48
2022-12-25T09:14:49.165Z,100648.44
2022-12-25T09:17:21.464Z,100645.78
2022-12-25T09:19:53.784Z,100647.32
2022-12-25T09:22:26.112Z,100650.38
2022-12-25T09:24:58.502Z,100647.63
2022-12-25T09:27:31.060Z,100644.55
2022-12-25T09:30:03.481Z,100649.55
2022-12-25T09:32:35.858Z,100656.14
2022-12-25T09:35:09.368Z,100662.25
2022-12-25T09:37:41.776Z,100665.70
2022-12-25T09:40:18.478Z,100659.18
2022-12-25T09:42:54.569Z,100657.31
2022-12-25T09:45:33.054Z,100655.96
2022-12-25T09:48:06.327Z,100658.77
2022-12-25T09:50:45.194Z,100661.69
2022-12-25T09:53:23.124Z,100659.36
2022-12-25T09:56:05.735Z,100665.11
2022-12-25T09:58:38.113Z,100665.72
2022-12-25T10:01:20.313Z,100667.45
2022-12-25T10:04:07.816Z,100672.72
2022-12-25T10:06:51.273Z,100679.60
2022-12-25T10:09:38.869Z,100682.98
2022-12-25T10:12:27.444Z,100688.85
2022-12-25T10:15:12.318Z,100692.77
2022-12-25T10:18:01.490Z,100693.17
2022-12-25T10:20:43.999Z,100690.16
2022-12-25T10:23:19.445Z,100696.46
2022-12-25T10:25:52.948Z,100694.92
2022-12-25T10:28:31.182Z,100698.88
2022-12-25T10:31:24.493Z,100698.08
2022-12-25T10:33:57.666Z,100693.36
2022-12-25T10:36:31.778Z,100688.44
2022-12-25T10:39:04.689Z,100682.16
2022-12-25T10:42:04.330Z,100686.89
2022-12-25T10:44:36.928Z,100683.35
2022-12-25T10:47:09.559Z,100681.00
2022-12-25T10:49:42.414Z,100677.38
2022-12-25T10:52:24.001Z,100667.89
2022-12-25T10:54:56.735Z,100661.60
2022-12-25T10:57:29.898Z,100664.27
2022-12-25T11:00:02.274Z,100665.88
2022-12-25T11:02:41.383Z,100662.20
2022-12-25T11:05:22.645Z,100657.60
2022-12-25T11:07:56.173Z,100656.67
2022-12-25T11:10:32.340Z,100656.54
2022-12-25T11:13:06.648Z,100657.81
2022-12-25T11:15:41.704Z,100662.80
2022-12-25T11:18:25.844Z,100668.38
2022-12-25T11:21:00.450Z,100668.99
2022-12-25T11:23:34.183Z,100669.55
2022-12-25T11:26:09.298Z,100668.49
2022-12-25T11:28:43.871Z,100669.46
2022-12-25T11:31:19.345Z,100665.42
2022-12-25T11:33:56.831Z,100667.30
2022-12-25T11:36:34.152Z,100665.81
2022-12-25T11:39:21.673Z,100660.49
2022-12-25T11:41:57.839Z,100660.95
2022-12-25T11:44:43.446Z,100656.88
2022-12-25T11:47:18.673Z,100655.41
2022-12-25T11:50:00.321Z,100656.78
2022-12-25T11:52:38.432Z,100664.02
2022-12-25T11:55:21.782Z,100663.84
2022-12-25T11:57:58.856Z,100666.89
2022-12-25T12:00:34.301Z,100669.56
2022-12-25T12:03:15.506Z,100670.46
2022-12-25T12:05:53.451Z,100671.33
2022-12-25T12:08:25.855Z,100671.27
2022-12-25T12:11:19.570Z,100669.13
2022-12-25T12:14:07.029Z,100674.36
2022-12-25T12:16:39.565Z,100674.43
2022-12-25T12:19:25.934Z,100679.69
2022-12-25T12:22:01.138Z,100672.73
2022-12-25T12:24:34.679Z,100670.83
2022-12-25T12:27:19.149Z,100668.21
2022-12-25T12:29:55.030Z,100664.90
2022-12-25T12:32:36.617Z,100664.21
2022-12-25T12:35:15.208Z,100659.14
2022-12-25T12:37:50.798Z,100663.42
2022-12-25T12:40:33.805Z,100666.36
2022-12-25T12:43:23.541Z,100657.35
2022-12-25T12:46:03.882Z,100651.31
2022-12-25T12:48:43.855Z,100655.36
2022-12-25T12:51:29.490Z,100643.42
2022-12-25T12:54:21.704Z,100644.02
2022-12-25T12:57:02.701Z,100643.29
2022-12-25T12:59:43.683Z,100648.30
2022-12-25T13:02:43.810Z,100655.44
2022-12-25T13:05:34.139Z,100654.59
2022-12-25T13:08:16.369Z,100655.50
2022-12-25T13:10:51.892Z,100658.89
2022-12-25T13:13:28.029Z,100665.81
2022-12-25T13:16:00.526Z,100666.24
2022-12-25T13:18:34.489Z,100663.19
2022-12-25T13:21:08.623Z,100663.17
2022-12-25T13:23:40.933Z,100667.79
2022-12-25T13:26:18.576Z,100669.89
2022-12-25T13:28:51.109Z,100664.89
2022-12-25T13:31:25.005Z,100661.45
2022-12-25T13:34:03.725Z,100659.77
2022-12-25T13:36:40.657Z,100656.14
2022-12-25T13:39:18.831Z,100659.48
2022-12-25T13:42:10.096Z,100659.96
2022-12-25T13:44:51.598Z,100660.50
2022-12-25T13:47:27.374Z,100656.42
2022-12-25T13:50:01.948Z,100653.02
2022-12-25T13:52:38.962Z,100659.90
2022-12-25T13:55:18.801Z,100668.70
2022-12-25T13:57:54.961Z,100674.80
2022-12-25T14:00:40.017Z,100675.33
2022-12-25T14:03:21.106Z,100672.18
2022-12-25T14:06:01.014Z,100673.73
2022-12-25T14:08:36.278Z,100675.17
2022-12-25T14:11:09.394Z,100674.14
2022-12-25T14:13:46.129Z,100670.11
2022-12-25T14:16:21.898Z,100671.86
2022-12-25T14:18:56.374Z,100676.45
2022-12-25T14:21:32.923Z,100681.48
2022-12-25T14:24:05.901Z,100682.13
2022-12-25T14:26:38.432Z,100683.66
2022-12-25T14:29:17.569Z,100685.70
2022-12-25T14:31:51.214Z,100691.46
2022-12-25T14:34:28.063Z,100699.88
2022-12-25T14:37:01.353Z,100704.17
2022-12-25T14:39:38.155Z,100709.13
2022-12-25T14:42:22.359Z,100710.13
2022-12-25T14:45:06.463Z,100714.04
2022-12-25T14:47:53.622Z,100714.01
2022-12-25T14:50:32.745Z,100713.55
2022-12-25T14:53:05.701Z,100707.63
2022-12-25T14:55:38.482Z,100711.17
2022-12-25T14:58:22.533Z,100713.41
2022-12-25T15:00:59.624Z,100712.02
2022-12-25T15:03:36.657Z,100711.58
2022-12-25T15:06:19.951Z,100704.00
2022-12-25T15:09:01.022Z,100701.04
2022-12-25T15:11:33.761Z,100700.55
2022-12-25T15:14:06.078Z,100704.68
2022-12-25T15:16:43.117Z,100706.67
2022-12-25T15:19:25.244Z,100708.79
2022-12-25T15:21:59.842Z,100700.74
2022-12-25T15:24:33.158Z,100696.02
2022-12-25T15:27:05.612Z,100694.80
2022-12-25T15:30:08.748Z,100696.04
2022-12-25T15:32:30.390Z,100696.39
2022-12-25T15:35:02.822Z,100697.47
2022-12-25T15:37:35.129Z,100696.71
2022-12-25T15:40:10.713Z,100690.69
2022-12-25T15:42:44.778Z,100687.30
2022-12-25T15:45:22.453Z,100684.77
2022-12-25T15:47:55.187Z,100678.83
2022-12-25T15:50:27.685Z,100681.92
2022-12-25T15:53:00.139Z,100678.83
2022-12-25T15:55:32.663Z,100682.22
2022-12-25T15:58:05.090Z,100685.83
2022-12-25T16:00:37.515Z,100695.84
2022-12-25T16:03:10.342Z,100694.57
2022-12-25T16:05:42.949Z,100691.36
2022-12-25T16:08:15.305Z,100690.47
2022-12-25T16:10:47.796Z,100690.69
2022-12-25T16:13:20.145Z,100699.99
2022-12-25T16:15:52.646Z,100709.70
2022-12-25T16:18:25.123Z,100710.27
2022-12-25T16:20:59.138Z,100710.14
2022-12-25T16:23:31.749Z,100717.70
2022-12-25T16:26:04.137Z,100717.79
2022-12-25T16:28:36.456Z,100714.07
2022-12-25T16:31:09.282Z,100708.14
2022-12-25T16:33:41.714Z,100702.77
2022-12-25T16:36:14.087Z,100701.79
2022-12-25T16:38:46.434Z,100706.48
2022-12-25T16:41:18.788Z,100704.41
2022-12-25T16:43:51.327Z,100699.13
2022-12-25T16:46:24.668Z,100692.20
2022-12-25T16:48:57.971Z,100690.50
2022-12-25T16:51:30.218Z,100691.08
2022-12-25T16:54:02.695Z,100690.98
2022-12-25T16:56:36.809Z,100688.80
2022-12-25T16:59:09.155Z,100689.92
2022-12-25T17:01:43.430Z,100686.83
2022-12-25T17:04:15.976Z,100688.99
2022-12-25T17:06:49.364Z,100688.05
2022-12-25T17:09:21.721Z,100693.71
2022-12-25T17:11:54.106Z,100692.14
2022-12-25T17:14:26.492Z,100686.75
2022-12-25T17:16:58.960Z,100681.02
2022-12-25T17:19:31.666Z,100674.66
2022-12-25T17:22:04.065Z,100672.60
2022-12-25T17:24:37.494Z,100668.33
2022-12-25T17:27:10.506Z,100662.66
2022-12-25T17:29:44.000Z,100663.27
2022-12-25T17:32:16.407Z,100665.00
2022-12-25T17:34:49.853Z,100664.94
2022-12-25T17:37:22.225Z,100660.57
2022-12-25T17:39:54.656Z,100663.86
2022-12-25T17:42:27.006Z,100663.34
2022-12-25T17:44:59.327Z,100665.83
2022-12-25T17:47:32.416Z,100660.69
2022-12-25T17:50:05.320Z,100659.98
2022-12-25T17:52:37.672Z,100662.73
2022-12-25T17:55:11.666Z,100661.50
2022-12-25T17:57:44.002Z,100662.96
2022-12-25T18:00:18.140Z,100661.86
2022-12-25T18:02:50.793Z,100655.28
2022-12-25T18:05:23.577Z,100646.50
2022-12-25T18:07:55.874Z,100641.25
2022-12-25T18:10:28.280Z,100645.17
2022-12-25T18:13:00.702Z,100651.27
2022-12-25T18:15:33.173Z,100655.23
2022-12-25T18:18:05.847Z,100652.32
2022-12-25T18:20:40.443Z,100657.91
2022-12-25T18:23:13.089Z,100653.99
2022-12-25T18:25:45.679Z,100655.05
2022-12-25T18:28:18.393Z,100650.17
2022-12-25T18:30:50.763Z,100641.25
2022-12-25T18:33:23.351Z,100642.52
2022-12-25T18:36:01.935Z,100639.94
2022-12-25T18:38:34.321Z,100641.48
2022-12-25T18:41:09.713Z,100635.84
2022-12-25T18:43:53.920Z,100633.61
2022-12-25T18:46:28.788Z,100632.70
2022-12-25T18:49:01.214Z,100624.90
2022-12-25T18:51:37.123Z,100623.61
2022-12-25T18:54:09.705Z,100616.96
2022-12-25T18:56:42.115Z,100617.73
2022-12-25T18:59:14.823Z,100613.70
2022-12-25T19:01:47.370Z,100611.20
2022-12-25T19:04:19.959Z,100600.63
2022-12-25T19:06:53.478Z,100595.70
2022-12-25T19:09:26.806Z,100593.23
2022-12-25T19:11:59.172Z,100591.23
2022-12-25T19:14:31.701Z,100590.64
2022-12-25T19:17:20.506Z,100586.52
2022-12-25T19:19:52.931Z,100586.14
2022-12-25T19:22:25.337Z,100581.89
2022-12-25T19:24:57.732Z,100578.65
2022-12-25T19:27:30.239Z,100579.30
2022-12-25T19:30:02.631Z,100587.06
2022-12-25T19:32:35.157Z,100587.06
2022-12-25T19:35:08.825Z,100583.78
2022-12-25T19:37:41.107Z,100577.13
2022-12-25T19:40:14.653Z,100572.27
2022-12-25T19:42:46.975Z,100566.52
2022-12-25T19:45:19.533Z,100566.38
2022-12-25T19:47:51.953Z,100565.00
2022-12-25T19:50:28.470Z,100569.92
2022-12-25T19:53:00.845Z,100566.63
2022-12-25T19:55:34.421Z,100563.61
2022-12-25T19:58:06.770Z,100561.68
2022-12-25T20:00:40.536Z,100558.53
2022-12-25T20:03:13.032Z,100562.32
2022-12-25T20:05:47.036Z,100561.99
2022-12-25T20:08:19.777Z,100558.14
2022-12-25T20:10:52.335Z,100555.28
2022-12-25T20:13:24.799Z,100548.61
2022-12-25T20:16:02.501Z,100548.46
2022-12-25T20:18:34.927Z,100548.41
2022-12-25T20:21:10.433Z,100540.16
2022-12-25T20:23:43.350Z,100536.86
2022-12-25T20:26:17.494Z,100538.16
2022-12-25T20:28:49.915Z,100542.13
2022-12-25T20:31:24.409Z,100540.48
2022-12-25T20:33:57.736Z,100534.81
2022-12-25T20:36:36.416Z,100532.52
2022-12-25T20:39:11.747Z,100529.41
2022-12-25T20:41:44.152Z,100531.02
2022-12-25T20:44:16.468Z,100529.55
2022-12-25T20:46:48.837Z,100535.80
2022-12-25T20:49:21.239Z,100534.86
2022-12-25T20:51:54.497Z,100531.57
2022-12-25T20:54:28.827Z,100519.41
2022-12-25T20:57:01.206Z,100517.34
2022-12-25T20:59:37.429Z,100512.21
2022-12-25T21:02:35.146Z,100504.22
2022-12-25T21:05:05.104Z,100499.11
2022-12-25T21:07:37.418Z,100492.19
2022-12-25T21:10:11.815Z,100488.60
2022-12-25T21:12:44.186Z,100481.79
2022-12-25T21:15:18.097Z,100481.48
2022-12-25T21:17:50.469Z,100482.41
2022-12-25T21:20:22.898Z,100476.14
2022-12-25T21:22:55.241Z,100476.16
2022-12-25T21:25:28.006Z,100476.59
2022-12-25T21:28:00.394Z,100472.52
2022-12-25T21:30:32.921Z,100464.35
2022-12-25T21:33:23.065Z,100457.73
2022-12-25T21:35:55.488Z,100455.10
2022-12-25T21:38:27.858Z,100458.19
2022-12-25T21:41:05.539Z,100458.70
2022-12-25T21:43:39.286Z,100456.56
2022-12-25T21:46:13.725Z,100455.44
2022-12-25T21:48:46.755Z,100445.81
2022-12-25T21:51:39.160Z,100443.15
2022-12-25T21:54:12.358Z,100440.98
2022-12-25T21:56:47.281Z,100425.22
2022-12-25T21:59:21.760Z,100413.20
2022-12-25T22:01:54.792Z,100409.04
2022-12-25T22:04:27.735Z,100406.06
2022-12-25T22:07:18.695Z,100402.38
2022-12-25T22:09:52.696Z,100394.86
2022-12-25T22:12:42.983Z,100392.94
2022-12-25T22:15:15.585Z,100392.23
2022-12-25T22:18:05.801Z,100386.90
2022-12-25T22:20:41.793Z,100390.90
2022-12-25T22:23:14.540Z,100388.83
2022-12-25T22:25:46.914Z,100377.05
2022-12-25T22:28:19.539Z,100375.35
2022-12-25T22:30:51.917Z,100371.64
2022-12-25T22:33:27.382Z,100363.26
2022-12-25T22:36:05.319Z,100343.97
2022-12-25T22:38:37.811Z,100335.75
2022-12-25T22:41:10.742Z,100336.52
2022-12-25T22:44:15.765Z,100341.96
2022-12-25T22:46:35.915Z,100336.05
2022-12-25T22:49:08.395Z,100338.30
2022-12-25T22:51:40.675Z,100336.70
2022-12-25T22:54:14.141Z,100335.52
2022-12-25T22:56:49.387Z,100326.31
2022-12-25T22:59:20.955Z,100325.55
2022-12-25T23:01:53.792Z,100317.33
2022-12-25T23:04:26.426Z,100302.02
2022-12-25T23:06:59.052Z,100294.09
2022-12-25T23:09:31.706Z,100288.33
2022-12-25T23:12:04.260Z,100291.90
2022-12-25T23:14:42.730Z,100286.27
2022-12-25T23:17:29.593Z,100283.55
2022-12-25T23:20:21.008Z,100293.90
2022-12-25T23:23:11.193Z,100294.72
2022-12-25T23:26:01.080Z,100291.40
2022-12-25T23:28:51.020Z,100285.52
2022-12-25T23:31:27.484Z,100292.14
2022-12-25T23:34:00.671Z,100299.37
2022-12-25T23:36:33.251Z,100293.86
2022-12-25T23:39:10.007Z,100292.50
2022-12-25T23:41:44.327Z,100294.48
2022-12-25T23:44:16.952Z,100297.73
2022-12-25T23:46:53.295Z,100295.69
2022-12-25T23:49:26.980Z,100295.89
2022-12-25T23:51:59.776Z,100284.81
2022-12-25T23:54:33.561Z,100278.00
2022-12-25T23:57:05.992Z,100270.70
2022-12-25T23:59:38.434Z,100266.89
